createdAt,value
2022-08-11T00:00:53.296Z,39.64
2022-08-11T00:01:53.281Z,38.99
2022-08-11T00:02:53.291Z,39.64
2022-08-11T00:03:53.262Z,39.32
2022-08-11T00:04:53.268Z,39.64
2022-08-11T00:05:53.267Z,39.32
2022-08-11T00:06:53.237Z,39.96
2022-08-11T00:07:53.223Z,39.16
2022-08-11T00:08:53.266Z,39.48
2022-08-11T00:09:53.247Z,40.28
2022-08-11T00:10:53.199Z,39.16
2022-08-11T00:11:53.190Z,39.64
2022-08-11T00:12:54.178Z,39.48
2022-08-11T00:13:53.169Z,39.64
2022-08-11T00:14:53.176Z,39.64
2022-08-11T00:15:53.148Z,39.96
2022-08-11T00:16:53.137Z,39.96
2022-08-11T00:17:53.130Z,40.12
2022-08-11T00:18:53.123Z,39.48
2022-08-11T00:20:12.402Z,39.48
2022-08-11T00:20:54.104Z,39.96
2022-08-11T00:22:04.912Z,40.44
2022-08-11T00:22:54.086Z,39.48
2022-08-11T00:23:53.073Z,39.48
2022-08-11T00:24:57.225Z,39.64
2022-08-11T00:25:54.051Z,39.80
2022-08-11T00:26:53.043Z,39.16
2022-08-11T00:27:53.031Z,39.80
2022-08-11T00:28:53.020Z,39.48
2022-08-11T00:29:53.028Z,39.96
2022-08-11T00:30:53.010Z,39.48
2022-08-11T00:31:52.991Z,39.32
2022-08-11T00:32:52.991Z,39.16
2022-08-11T00:33:52.973Z,39.32
2022-08-11T00:34:52.984Z,38.99
2022-08-11T00:35:57.669Z,39.32
2022-08-11T00:36:52.949Z,39.64
2022-08-11T00:37:52.935Z,39.96
2022-08-11T00:38:52.947Z,39.48
2022-08-11T00:39:53.034Z,39.32
2022-08-11T00:40:52.927Z,39.32
2022-08-11T00:41:56.776Z,39.32
2022-08-11T00:42:52.887Z,39.32
2022-08-11T00:43:52.879Z,39.32
2022-08-11T00:44:52.867Z,40.12
2022-08-11T00:45:52.901Z,39.64
2022-08-11T00:46:52.857Z,39.96
2022-08-11T00:47:52.842Z,39.16
2022-08-11T00:48:52.835Z,39.80
2022-08-11T00:49:52.822Z,39.80
2022-08-11T00:50:52.831Z,40.93
2022-08-11T00:52:02.029Z,40.77
2022-08-11T00:52:53.797Z,40.12
2022-08-11T00:53:52.785Z,40.12
2022-08-11T00:54:52.775Z,39.96
2022-08-11T00:55:55.469Z,39.96
2022-08-11T00:56:52.761Z,39.64
2022-08-11T00:57:52.745Z,39.80
2022-08-11T00:58:52.741Z,39.96
2022-08-11T00:59:52.725Z,39.64
2022-08-11T01:00:52.759Z,40.93
2022-08-11T01:01:52.702Z,40.28
2022-08-11T01:02:52.701Z,40.44
2022-08-11T01:03:52.688Z,39.64
2022-08-11T01:04:55.745Z,40.61
2022-08-11T01:05:52.681Z,40.93
2022-08-11T01:06:52.662Z,40.28
2022-08-11T01:08:02.388Z,39.64
2022-08-11T01:08:53.689Z,39.96
2022-08-11T01:09:52.628Z,39.64
2022-08-11T01:10:52.688Z,40.12
2022-08-11T01:11:55.727Z,39.32
2022-08-11T01:12:52.603Z,40.12
2022-08-11T01:13:52.594Z,38.99
2022-08-11T01:14:52.588Z,39.64
2022-08-11T01:15:57.019Z,38.51
2022-08-11T01:16:52.632Z,39.64
2022-08-11T01:17:52.555Z,40.12
2022-08-11T01:18:52.544Z,40.28
2022-08-11T01:20:44.724Z,40.61
2022-08-11T01:20:53.546Z,39.96
2022-08-11T01:21:52.522Z,39.96
2022-08-11T01:22:52.566Z,40.44
2022-08-11T01:23:52.503Z,40.44
2022-08-11T01:24:52.485Z,41.25
2022-08-11T01:25:57.061Z,40.61
2022-08-11T01:26:53.470Z,39.96
2022-08-11T01:27:52.463Z,40.77
2022-08-11T01:28:52.539Z,39.64
2022-08-11T01:29:52.436Z,40.93
2022-08-11T01:30:54.293Z,41.41
2022-08-11T01:31:52.425Z,39.64
2022-08-11T01:32:52.410Z,39.96
2022-08-11T01:33:52.404Z,40.44
2022-08-11T01:34:52.387Z,39.96
2022-08-11T01:35:52.597Z,40.77
2022-08-11T01:36:53.585Z,40.12
2022-08-11T01:37:52.358Z,40.12
2022-08-11T01:38:52.346Z,41.89
2022-08-11T01:39:52.424Z,41.25
2022-08-11T01:40:52.346Z,40.93
2022-08-11T01:41:52.324Z,39.96
2022-08-11T01:42:52.312Z,40.44
2022-08-11T01:43:52.297Z,41.41
2022-08-11T01:44:52.294Z,40.61
2022-08-11T01:45:52.379Z,41.57
2022-08-11T01:46:52.444Z,41.57
2022-08-11T01:47:53.521Z,40.93
2022-08-11T01:48:52.252Z,40.61
2022-08-11T01:50:09.438Z,41.25
2022-08-11T01:50:53.248Z,41.25
2022-08-11T01:51:52.225Z,41.41
2022-08-11T01:52:52.386Z,41.25
2022-08-11T01:53:52.199Z,42.06
2022-08-11T01:54:52.191Z,42.38
2022-08-11T01:55:52.238Z,41.89
2022-08-11T01:56:52.167Z,41.57
2022-08-11T01:57:52.165Z,42.38
2022-08-11T01:58:52.156Z,43.02
2022-08-11T01:59:52.147Z,39.80
2022-08-11T02:00:52.192Z,39.80
2022-08-11T02:01:52.223Z,38.83
2022-08-11T02:02:52.113Z,39.96
2022-08-11T02:03:52.107Z,39.32
2022-08-11T02:04:52.094Z,40.44
2022-08-11T02:05:52.083Z,40.28
2022-08-11T02:06:52.090Z,40.44
2022-08-11T02:07:52.069Z,39.48
2022-08-11T02:08:52.054Z,40.12
2022-08-11T02:09:52.045Z,40.12
2022-08-11T02:10:52.035Z,41.57
2022-08-11T02:11:52.042Z,42.38
2022-08-11T02:12:52.412Z,42.54
2022-08-11T02:13:52.007Z,41.25
2022-08-11T02:15:04.779Z,41.25
2022-08-11T02:15:52.993Z,42.06
2022-08-11T02:16:51.999Z,40.61
2022-08-11T02:17:54.703Z,40.28
2022-08-11T02:18:51.963Z,40.44
2022-08-11T02:19:51.958Z,41.09
2022-08-11T02:20:51.951Z,40.61
2022-08-11T02:21:51.946Z,40.44
2022-08-11T02:22:51.944Z,41.25
2022-08-11T02:24:07.106Z,40.61
2022-08-11T02:24:52.900Z,40.77
2022-08-11T02:25:51.980Z,40.93
2022-08-11T02:26:51.901Z,39.80
2022-08-11T02:27:51.878Z,39.80
2022-08-11T02:28:51.862Z,40.12
2022-08-11T02:29:51.862Z,40.28
2022-08-11T02:30:51.862Z,39.48
2022-08-11T02:32:24.373Z,39.64
2022-08-11T02:32:53.030Z,40.44
2022-08-11T02:33:51.821Z,40.61
2022-08-11T02:34:59.411Z,41.25
2022-08-11T02:35:51.806Z,40.61
2022-08-11T02:36:52.045Z,40.12
2022-08-11T02:37:51.823Z,41.25
2022-08-11T02:38:52.007Z,40.44
2022-08-11T02:39:51.814Z,40.77
2022-08-11T02:40:51.756Z,42.06
2022-08-11T02:41:51.762Z,41.73
2022-08-11T02:42:51.731Z,41.57
2022-08-11T02:43:51.856Z,41.73
2022-08-11T02:44:51.711Z,41.73
2022-08-11T02:45:51.723Z,41.09
2022-08-11T02:46:51.704Z,41.41
2022-08-11T02:47:51.687Z,41.57
2022-08-11T02:48:51.679Z,41.09
2022-08-11T02:50:02.721Z,42.22
2022-08-11T02:50:52.653Z,43.34
2022-08-11T02:51:51.702Z,41.41
2022-08-11T02:52:51.637Z,40.93
2022-08-11T02:53:57.995Z,41.25
2022-08-11T02:54:52.618Z,42.06
2022-08-11T02:55:57.983Z,41.89
2022-08-11T02:56:52.636Z,40.93
2022-08-11T02:57:51.594Z,41.41
2022-08-11T02:58:51.582Z,40.93
2022-08-11T02:59:51.593Z,41.41
2022-08-11T03:00:51.590Z,40.93
2022-08-11T03:01:51.623Z,41.57
2022-08-11T03:02:51.578Z,40.61
2022-08-11T03:03:51.545Z,40.28
2022-08-11T03:04:51.533Z,40.93
2022-08-11T03:05:52.908Z,43.34
2022-08-11T03:06:51.522Z,40.77
2022-08-11T03:07:51.509Z,40.77
2022-08-11T03:08:51.500Z,41.41
2022-08-11T03:09:51.485Z,41.57
2022-08-11T03:10:51.465Z,41.89
2022-08-11T03:11:51.479Z,41.57
2022-08-11T03:12:53.666Z,42.54
2022-08-11T03:13:51.451Z,41.73
2022-08-11T03:14:51.426Z,43.83
2022-08-11T03:15:51.435Z,41.09
2022-08-11T03:16:51.475Z,41.41
2022-08-11T03:17:51.400Z,43.02
2022-08-11T03:18:51.399Z,42.70
2022-08-11T03:19:51.582Z,43.83
2022-08-11T03:20:51.372Z,41.89
2022-08-11T03:22:03.060Z,42.86
2022-08-11T03:22:52.353Z,42.22
2022-08-11T03:23:51.347Z,43.51
2022-08-11T03:24:51.337Z,42.22
2022-08-11T03:25:51.324Z,41.41
2022-08-11T03:26:51.325Z,41.89
2022-08-11T03:27:51.303Z,44.96
2022-08-11T03:28:51.292Z,41.09
2022-08-11T03:29:51.284Z,45.92
2022-08-11T03:30:51.282Z,46.25
2022-08-11T03:31:51.285Z,46.41
2022-08-11T03:32:51.252Z,45.92
2022-08-11T03:33:51.247Z,42.54
2022-08-11T03:34:51.233Z,41.89
2022-08-11T03:35:51.227Z,41.73
2022-08-11T03:37:15.067Z,45.92
2022-08-11T03:37:52.482Z,44.47
2022-08-11T03:38:51.271Z,43.83
2022-08-11T03:39:56.160Z,42.38
2022-08-11T03:40:52.178Z,42.38
2022-08-11T03:42:04.489Z,43.67
2022-08-11T03:42:52.157Z,44.15
2022-08-11T03:43:58.415Z,41.73
2022-08-11T03:44:51.354Z,45.44
2022-08-11T03:45:51.134Z,44.47
2022-08-11T03:46:51.139Z,42.06
2022-08-11T03:47:54.958Z,44.96
2022-08-11T03:48:51.115Z,42.38
2022-08-11T03:49:51.095Z,43.51
2022-08-11T03:50:54.958Z,48.98
2022-08-11T03:51:52.187Z,45.60
2022-08-11T03:52:51.247Z,43.51
2022-08-11T03:53:51.052Z,45.60
2022-08-11T03:54:51.046Z,41.25
2022-08-11T03:55:51.039Z,41.73
2022-08-11T03:56:51.034Z,45.44
2022-08-11T03:57:51.017Z,41.73
2022-08-11T03:58:51.113Z,42.22
2022-08-11T03:59:50.996Z,43.51
2022-08-11T04:00:50.987Z,42.06
2022-08-11T04:01:51.039Z,46.89
2022-08-11T04:02:50.969Z,42.86
2022-08-11T04:03:50.961Z,42.54
2022-08-11T04:04:51.641Z,43.67
2022-08-11T04:05:51.021Z,43.02
2022-08-11T04:06:50.940Z,41.41
2022-08-11T04:07:50.920Z,41.57
2022-08-11T04:08:50.910Z,41.89
2022-08-11T04:09:50.899Z,48.82
2022-08-11T04:10:50.890Z,49.47
2022-08-11T04:11:50.896Z,45.28
2022-08-11T04:12:51.018Z,47.53
2022-08-11T04:13:50.867Z,47.86
2022-08-11T04:14:50.850Z,48.18
2022-08-11T04:15:51.059Z,43.34
2022-08-11T04:16:50.836Z,43.18
2022-08-11T04:17:50.837Z,43.34
2022-08-11T04:18:50.816Z,44.79
2022-08-11T04:19:50.803Z,41.89
2022-08-11T04:20:50.792Z,42.70
2022-08-11T04:21:50.781Z,48.82
2022-08-11T04:22:50.781Z,44.79
2022-08-11T04:24:35.010Z,45.44
2022-08-11T04:24:51.776Z,44.47
2022-08-11T04:25:55.854Z,42.22
2022-08-11T04:26:51.729Z,44.63
2022-08-11T04:27:50.861Z,44.31
2022-08-11T04:28:50.897Z,44.63
2022-08-11T04:30:02.101Z,48.34
2022-08-11T04:30:51.896Z,43.99
2022-08-11T04:31:52.738Z,44.47
2022-08-11T04:32:50.680Z,42.86
2022-08-11T04:33:52.064Z,47.21
2022-08-11T04:34:50.658Z,44.47
2022-08-11T04:35:51.418Z,44.15
2022-08-11T04:36:50.635Z,44.96
2022-08-11T04:37:51.351Z,44.63
2022-08-11T04:38:50.623Z,46.25
2022-08-11T04:39:50.705Z,47.70
2022-08-11T04:40:50.600Z,50.11
2022-08-11T04:41:50.594Z,48.82
2022-08-11T04:42:50.596Z,48.02
2022-08-11T04:44:02.887Z,44.15
2022-08-11T04:44:51.570Z,43.67
2022-08-11T04:45:50.551Z,49.15
2022-08-11T04:46:50.537Z,55.59
2022-08-11T04:48:03.536Z,44.63
2022-08-11T04:48:51.523Z,43.67
2022-08-11T04:49:50.530Z,42.54
2022-08-11T04:51:08.591Z,43.83
2022-08-11T04:51:51.552Z,48.66
2022-08-11T04:52:50.571Z,44.47
2022-08-11T04:53:52.265Z,44.79
2022-08-11T04:54:50.809Z,43.83
2022-08-11T04:55:50.465Z,43.99
2022-08-11T04:56:50.597Z,47.37
2022-08-11T04:57:50.450Z,43.99
2022-08-11T04:58:50.423Z,43.51
2022-08-11T04:59:50.423Z,43.99
2022-08-11T05:00:50.425Z,43.99
2022-08-11T05:01:50.464Z,44.15
2022-08-11T05:02:50.430Z,42.22
2022-08-11T05:03:50.399Z,44.47
2022-08-11T05:04:50.368Z,48.82
2022-08-11T05:05:56.496Z,44.47
2022-08-11T05:06:51.353Z,44.47
2022-08-11T05:07:50.374Z,46.08
2022-08-11T05:08:50.333Z,44.47
2022-08-11T05:09:50.328Z,48.02
2022-08-11T05:10:50.311Z,50.60
2022-08-11T05:11:50.321Z,44.47
2022-08-11T05:12:50.309Z,53.33
2022-08-11T05:13:50.287Z,44.96
2022-08-11T05:14:50.274Z,44.79
2022-08-11T05:15:51.597Z,46.57
2022-08-11T05:16:50.265Z,44.31
2022-08-11T05:17:50.251Z,44.31
2022-08-11T05:18:50.238Z,46.41
2022-08-11T05:19:50.228Z,45.44
2022-08-11T05:20:50.218Z,48.82
2022-08-11T05:21:50.226Z,42.54
2022-08-11T05:22:50.197Z,44.15
2022-08-11T05:23:50.196Z,43.02
2022-08-11T05:24:50.179Z,44.47
2022-08-11T05:26:43.342Z,46.89
2022-08-11T05:26:51.176Z,45.92
2022-08-11T05:27:50.152Z,44.15
2022-08-11T05:28:50.137Z,43.83
2022-08-11T05:29:50.132Z,46.89
2022-08-11T05:30:50.116Z,43.83
2022-08-11T05:31:50.132Z,44.63
2022-08-11T05:32:50.093Z,47.70
2022-08-11T05:33:50.090Z,44.63
2022-08-11T05:34:50.081Z,48.50
2022-08-11T05:36:00.825Z,48.50
2022-08-11T05:36:51.083Z,43.34
2022-08-11T05:37:50.046Z,42.54
2022-08-11T05:38:50.047Z,53.01
2022-08-11T05:39:50.100Z,48.82
2022-08-11T05:40:51.126Z,43.99
2022-08-11T05:41:50.034Z,43.34
2022-08-11T05:42:50.005Z,49.79
2022-08-11T05:44:20.605Z,45.76
2022-08-11T05:44:50.993Z,45.60
2022-08-11T05:46:02.772Z,44.63
2022-08-11T05:46:50.980Z,45.76
2022-08-11T05:47:49.958Z,45.28
2022-08-11T05:48:49.974Z,47.05
2022-08-11T05:49:49.939Z,48.66
2022-08-11T05:50:49.928Z,44.96
2022-08-11T05:51:55.111Z,49.15
2022-08-11T05:52:55.453Z,42.06
2022-08-11T05:53:50.058Z,46.57
2022-08-11T05:54:49.889Z,41.73
2022-08-11T05:56:01.649Z,42.38
2022-08-11T05:56:50.887Z,44.96
2022-08-11T05:57:51.900Z,42.38
2022-08-11T05:58:49.845Z,44.63
2022-08-11T05:59:49.843Z,43.99
2022-08-11T06:00:49.843Z,49.31
2022-08-11T06:01:49.882Z,43.51
2022-08-11T06:02:49.824Z,42.86
2022-08-11T06:03:58.665Z,45.28
2022-08-11T06:04:50.812Z,43.34
2022-08-11T06:05:50.823Z,41.73
2022-08-11T06:06:49.770Z,49.31
2022-08-11T06:07:50.305Z,44.63
2022-08-11T06:08:49.758Z,46.89
2022-08-11T06:09:49.743Z,45.76
2022-08-11T06:10:49.739Z,44.15
2022-08-11T06:11:49.727Z,46.41
2022-08-11T06:12:49.732Z,44.31
2022-08-11T06:13:49.715Z,42.86
2022-08-11T06:14:49.710Z,43.18
2022-08-11T06:15:49.693Z,43.34
2022-08-11T06:16:49.879Z,42.22
2022-08-11T06:17:49.682Z,43.99
2022-08-11T06:18:49.670Z,43.02
2022-08-11T06:19:49.657Z,43.67
2022-08-11T06:20:49.658Z,43.67
2022-08-11T06:21:49.636Z,43.99
2022-08-11T06:22:52.933Z,44.96
2022-08-11T06:23:49.608Z,48.98
2022-08-11T06:24:49.610Z,43.83
2022-08-11T06:25:49.599Z,42.86
2022-08-11T06:27:11.331Z,46.57
2022-08-11T06:27:50.588Z,42.54
2022-08-11T06:28:49.656Z,39.96
2022-08-11T06:29:55.134Z,45.12
2022-08-11T06:30:50.550Z,41.73
2022-08-11T06:31:49.534Z,43.18
2022-08-11T06:32:49.534Z,45.60
2022-08-11T06:33:49.511Z,43.67
2022-08-11T06:34:49.508Z,42.54
2022-08-11T06:35:49.499Z,46.41
2022-08-11T06:36:49.486Z,42.22
2022-08-11T06:37:49.506Z,44.47
2022-08-11T06:38:49.472Z,51.88
2022-08-11T06:39:49.505Z,50.43
2022-08-11T06:40:49.445Z,47.53
2022-08-11T06:41:49.436Z,46.57
2022-08-11T06:42:49.436Z,44.79
2022-08-11T06:43:55.941Z,44.47
2022-08-11T06:44:50.403Z,43.83
2022-08-11T06:45:49.392Z,45.60
2022-08-11T06:46:49.386Z,45.60
2022-08-11T06:47:49.404Z,48.98
2022-08-11T06:48:49.380Z,45.76
2022-08-11T06:49:49.361Z,48.02
2022-08-11T06:50:49.348Z,41.41
2022-08-11T06:51:49.335Z,41.57
2022-08-11T06:52:49.626Z,44.79
2022-08-11T06:53:49.496Z,44.79
2022-08-11T06:54:50.307Z,47.70
2022-08-11T06:55:57.917Z,44.96
2022-08-11T06:57:01.723Z,42.54
2022-08-11T06:57:50.278Z,43.99
2022-08-11T06:58:49.288Z,48.18
2022-08-11T06:59:49.253Z,41.73
2022-08-11T07:00:49.250Z,42.70
2022-08-11T07:01:49.583Z,44.31
2022-08-11T07:02:49.233Z,43.51
2022-08-11T07:03:49.237Z,41.41
2022-08-11T07:04:49.209Z,43.83
2022-08-11T07:05:49.202Z,43.51
2022-08-11T07:06:50.386Z,40.12
2022-08-11T07:07:49.181Z,41.25
2022-08-11T07:08:49.192Z,43.34
2022-08-11T07:09:49.160Z,44.79
2022-08-11T07:10:49.154Z,43.51
2022-08-11T07:11:49.143Z,44.47
2022-08-11T07:12:49.132Z,45.76
2022-08-11T07:13:49.136Z,46.08
2022-08-11T07:14:49.113Z,42.06
2022-08-11T07:16:12.205Z,43.18
2022-08-11T07:16:50.094Z,40.77
2022-08-11T07:17:49.076Z,41.89
2022-08-11T07:18:49.085Z,41.41
2022-08-11T07:19:49.061Z,40.61
2022-08-11T07:20:49.052Z,42.22
2022-08-11T07:22:02.346Z,41.73
2022-08-11T07:22:50.040Z,44.15
2022-08-11T07:23:49.040Z,43.18
2022-08-11T07:25:01.388Z,42.38
2022-08-11T07:25:50.010Z,41.09
2022-08-11T07:26:49.001Z,39.48
2022-08-11T07:27:48.989Z,45.28
2022-08-11T07:28:48.990Z,39.16
2022-08-11T07:29:48.969Z,41.09
2022-08-11T07:30:51.859Z,44.47
2022-08-11T07:31:50.011Z,41.57
2022-08-11T07:32:48.939Z,46.08
2022-08-11T07:34:08.408Z,40.93
2022-08-11T07:34:49.927Z,43.99
2022-08-11T07:35:48.946Z,40.12
2022-08-11T07:36:48.897Z,38.99
2022-08-11T07:37:48.881Z,40.44
2022-08-11T07:38:49.058Z,43.99
2022-08-11T07:39:48.925Z,42.70
2022-08-11T07:40:48.864Z,39.32
2022-08-11T07:41:48.841Z,41.89
2022-08-11T07:42:48.841Z,44.31
2022-08-11T07:43:48.820Z,39.32
2022-08-11T07:44:48.830Z,47.53
2022-08-11T07:45:48.805Z,37.06
2022-08-11T07:46:48.792Z,41.89
2022-08-11T07:47:48.778Z,42.54
2022-08-11T07:48:48.787Z,39.48
2022-08-11T07:49:48.779Z,37.71
2022-08-11T07:50:51.811Z,39.16
2022-08-11T07:51:48.747Z,39.16
2022-08-11T07:52:52.799Z,36.09
2022-08-11T07:53:58.781Z,38.35
2022-08-11T07:54:51.296Z,39.64
2022-08-11T07:55:50.839Z,41.09
2022-08-11T07:57:07.518Z,37.71
2022-08-11T07:58:16.164Z,37.06
2022-08-11T07:58:53.225Z,36.74
2022-08-11T07:59:57.578Z,40.77
2022-08-11T08:00:51.788Z,38.35
2022-08-11T08:01:48.673Z,36.42
2022-08-11T08:02:48.643Z,36.09
2022-08-11T08:03:54.504Z,38.35
2022-08-11T08:04:49.640Z,34.97
2022-08-11T08:05:48.619Z,34.48
2022-08-11T08:06:48.604Z,35.77
2022-08-11T08:07:48.593Z,37.38
2022-08-11T08:08:48.591Z,34.97
2022-08-11T08:09:48.586Z,38.35
2022-08-11T08:10:48.566Z,37.54
2022-08-11T08:11:48.561Z,44.31
2022-08-11T08:12:48.551Z,37.87
2022-08-11T08:13:48.539Z,39.80
2022-08-11T08:14:48.564Z,37.87
2022-08-11T08:15:48.518Z,33.35
2022-08-11T08:16:48.516Z,33.52
2022-08-11T08:18:09.915Z,32.39
2022-08-11T08:18:49.499Z,33.03
2022-08-11T08:19:48.502Z,32.87
2022-08-11T08:20:48.476Z,35.13
2022-08-11T08:21:48.464Z,35.45
2022-08-11T08:22:48.834Z,35.61
2022-08-11T08:23:53.796Z,33.52
2022-08-11T08:24:49.455Z,35.29
2022-08-11T08:25:48.432Z,35.29
2022-08-11T08:26:51.871Z,37.54
2022-08-11T08:27:48.415Z,38.51
2022-08-11T08:28:48.406Z,35.93
2022-08-11T08:29:48.407Z,37.38
2022-08-11T08:30:48.384Z,32.55
2022-08-11T08:31:48.365Z,41.57
2022-08-11T08:32:48.371Z,35.61
2022-08-11T08:33:48.357Z,37.87
2022-08-11T08:34:48.370Z,37.54
2022-08-11T08:35:54.084Z,34.32
2022-08-11T08:36:49.345Z,33.19
2022-08-11T08:37:48.328Z,33.03
2022-08-11T08:38:48.370Z,32.87
2022-08-11T08:39:48.367Z,31.10
2022-08-11T08:40:48.441Z,31.42
2022-08-11T08:41:48.287Z,34.00
2022-08-11T08:42:48.518Z,42.06
2022-08-11T08:43:49.300Z,32.07
2022-08-11T08:44:48.251Z,38.67
2022-08-11T08:45:48.477Z,35.29
2022-08-11T08:46:48.241Z,42.06
2022-08-11T08:47:52.551Z,33.35
2022-08-11T08:48:48.225Z,34.80
2022-08-11T08:49:48.211Z,40.61
2022-08-11T08:50:48.222Z,33.84
2022-08-11T08:52:01.493Z,37.54
2022-08-11T08:52:49.582Z,35.77
2022-08-11T08:53:52.375Z,30.45
2022-08-11T08:54:49.213Z,32.07
2022-08-11T08:55:48.166Z,36.09
2022-08-11T08:56:48.153Z,31.90
2022-08-11T08:57:48.149Z,38.35
2022-08-11T08:58:48.136Z,36.90
2022-08-11T08:59:49.515Z,35.93
2022-08-11T09:00:48.135Z,33.19
2022-08-11T09:01:48.175Z,43.18
2022-08-11T09:02:48.326Z,38.51
2022-08-11T09:04:06.844Z,36.25
2022-08-11T09:04:49.109Z,36.74
2022-08-11T09:05:48.086Z,38.99
2022-08-11T09:06:51.621Z,33.35
2022-08-11T09:07:48.062Z,34.16
2022-08-11T09:08:49.650Z,38.35
2022-08-11T09:09:48.040Z,37.22
2022-08-11T09:10:48.053Z,31.58
2022-08-11T09:11:48.025Z,34.64
2022-08-11T09:12:48.291Z,36.90
2022-08-11T09:14:05.892Z,33.35
2022-08-11T09:14:49.115Z,34.64
2022-08-11T09:15:48.006Z,35.13
2022-08-11T09:16:47.991Z,33.03
2022-08-11T09:17:47.974Z,34.64
2022-08-11T09:18:47.974Z,33.84
2022-08-11T09:19:56.560Z,33.84
2022-08-11T09:20:48.971Z,39.16
2022-08-11T09:21:49.429Z,35.61
2022-08-11T09:22:47.938Z,36.58
2022-08-11T09:24:07.407Z,38.03
2022-08-11T09:24:48.921Z,33.35
2022-08-11T09:25:47.923Z,34.64
2022-08-11T09:26:47.909Z,35.77
2022-08-11T09:27:50.204Z,32.71
2022-08-11T09:28:47.947Z,37.38
2022-08-11T09:29:47.884Z,37.54
2022-08-11T09:30:47.888Z,30.29
2022-08-11T09:31:47.862Z,32.71
2022-08-11T09:32:47.859Z,29.49
2022-08-11T09:33:47.849Z,38.03
2022-08-11T09:34:47.847Z,40.44
2022-08-11T09:35:47.851Z,35.45
2022-08-11T09:36:47.826Z,29.81
2022-08-11T09:37:55.692Z,29.97
2022-08-11T09:38:49.713Z,35.45
2022-08-11T09:39:47.831Z,34.80
2022-08-11T09:40:52.824Z,34.48
2022-08-11T09:42:01.880Z,35.93
2022-08-11T09:42:48.777Z,28.84
2022-08-11T09:43:47.762Z,34.48
2022-08-11T09:44:48.575Z,28.52
2022-08-11T09:45:47.764Z,30.13
2022-08-11T09:46:47.742Z,32.39
2022-08-11T09:47:47.750Z,28.84
2022-08-11T09:48:47.724Z,33.84
2022-08-11T09:49:47.727Z,37.87
2022-08-11T09:50:47.734Z,32.39
2022-08-11T09:52:01.966Z,35.45
2022-08-11T09:53:16.866Z,32.07
2022-08-11T09:54:03.718Z,36.09
2022-08-11T09:54:48.801Z,34.48
2022-08-11T09:55:47.689Z,33.19
2022-08-11T09:56:47.666Z,43.99
2022-08-11T09:57:47.675Z,35.29
2022-08-11T09:58:47.647Z,34.00
2022-08-11T09:59:47.648Z,32.39
2022-08-11T10:00:47.713Z,32.87
2022-08-11T10:01:47.674Z,33.03
2022-08-11T10:02:47.619Z,35.29
2022-08-11T10:03:47.607Z,36.42
2022-08-11T10:04:47.603Z,37.71
2022-08-11T10:05:47.605Z,31.90
2022-08-11T10:06:47.588Z,34.48
2022-08-11T10:07:47.590Z,31.42
2022-08-11T10:08:47.575Z,30.78
2022-08-11T10:09:47.567Z,33.68
2022-08-11T10:10:47.573Z,34.80
2022-08-11T10:11:57.792Z,35.13
2022-08-11T10:12:48.545Z,31.26
2022-08-11T10:14:33.462Z,29.33
2022-08-11T10:14:48.530Z,36.90
2022-08-11T10:15:59.585Z,31.58
2022-08-11T10:16:48.520Z,37.06
2022-08-11T10:17:47.516Z,35.29
2022-08-11T10:18:47.503Z,37.22
2022-08-11T10:20:04.230Z,38.03
2022-08-11T10:20:48.502Z,33.84
2022-08-11T10:21:47.485Z,31.42
2022-08-11T10:22:47.476Z,31.58
2022-08-11T10:24:01.034Z,30.13
2022-08-11T10:24:48.463Z,31.26
2022-08-11T10:25:47.469Z,32.07
2022-08-11T10:26:47.455Z,32.07
2022-08-11T10:28:30.558Z,28.68
2022-08-11T10:29:09.903Z,30.45
2022-08-11T10:29:49.759Z,30.45
2022-08-11T10:30:47.441Z,42.06
2022-08-11T10:31:57.530Z,42.22
2022-08-11T10:32:58.681Z,38.99
2022-08-11T10:33:59.261Z,26.91
2022-08-11T10:34:51.173Z,31.90
2022-08-11T10:35:47.396Z,31.74
2022-08-11T10:36:47.398Z,33.35
2022-08-11T10:38:08.654Z,32.55
2022-08-11T10:38:48.371Z,39.48
2022-08-11T10:39:47.411Z,36.09
2022-08-11T10:40:47.354Z,31.10
2022-08-11T10:42:06.567Z,30.29
2022-08-11T10:42:57.794Z,33.35
2022-08-11T10:44:02.876Z,36.25
2022-08-11T10:44:48.322Z,36.90
2022-08-11T10:45:47.321Z,29.65
2022-08-11T10:46:47.322Z,29.33
2022-08-11T10:47:49.680Z,27.07
2022-08-11T10:48:47.305Z,27.23
2022-08-11T10:49:47.291Z,37.38
2022-08-11T10:50:47.281Z,39.48
2022-08-11T10:51:50.973Z,40.44
2022-08-11T10:52:47.269Z,29.00
2022-08-11T10:53:47.261Z,35.29
2022-08-11T10:54:47.260Z,35.61
2022-08-11T10:55:47.299Z,33.68
2022-08-11T10:56:47.255Z,28.52
2022-08-11T10:58:04.279Z,28.52
2022-08-11T10:58:48.231Z,27.71
2022-08-11T10:59:47.218Z,32.55
2022-08-11T11:00:47.245Z,34.48
2022-08-11T11:01:47.220Z,36.42
2022-08-11T11:03:07.108Z,29.17
2022-08-11T11:03:48.197Z,31.58
2022-08-11T11:04:50.775Z,30.13
2022-08-11T11:06:27.502Z,28.36
2022-08-11T11:06:48.178Z,30.13
2022-08-11T11:07:47.168Z,27.23
2022-08-11T11:09:47.153Z,30.13
2022-08-11T11:10:47.141Z,29.49
2022-08-11T11:11:47.157Z,33.84
2022-08-11T11:12:47.124Z,31.26
2022-08-11T11:13:53.383Z,37.06
2022-08-11T11:14:50.801Z,30.78
2022-08-11T11:15:47.163Z,38.83
2022-08-11T11:16:47.112Z,35.13
2022-08-11T11:17:47.088Z,31.42
2022-08-11T11:18:47.076Z,33.03
2022-08-11T11:19:48.074Z,34.64
2022-08-11T11:20:47.688Z,33.84
2022-08-11T11:21:47.076Z,39.16
2022-08-11T11:22:47.052Z,29.97
2022-08-11T11:23:47.046Z,32.55
2022-08-11T11:24:47.040Z,28.36
2022-08-11T11:25:47.034Z,28.36
2022-08-11T11:26:47.039Z,29.00
2022-08-11T11:27:47.024Z,29.65
2022-08-11T11:28:47.084Z,33.68
2022-08-11T11:29:47.008Z,31.26
2022-08-11T11:30:47.034Z,28.04
2022-08-11T11:31:47.007Z,30.62
2022-08-11T11:32:49.668Z,35.77
2022-08-11T11:34:06.166Z,30.13
2022-08-11T11:34:53.476Z,35.77
2022-08-11T11:35:48.014Z,30.13
2022-08-11T11:36:46.983Z,30.13
2022-08-11T11:38:03.488Z,32.87
2022-08-11T11:38:47.937Z,37.71
2022-08-11T11:39:46.994Z,38.03
2022-08-11T11:40:46.927Z,37.87
2022-08-11T11:41:46.935Z,34.80
2022-08-11T11:42:46.914Z,31.42
2022-08-11T11:43:46.908Z,30.62
2022-08-11T11:44:46.914Z,29.97
2022-08-11T11:45:46.899Z,34.00
2022-08-11T11:46:46.916Z,30.13
2022-08-11T11:47:46.887Z,35.93
2022-08-11T11:48:46.878Z,29.49
2022-08-11T11:49:46.876Z,28.04
2022-08-11T11:50:46.864Z,29.49
2022-08-11T11:51:50.005Z,30.78
2022-08-11T11:52:46.868Z,36.90
2022-08-11T11:53:46.853Z,28.52
2022-08-11T11:54:46.841Z,35.93
2022-08-11T11:55:46.865Z,29.00
2022-08-11T11:56:46.830Z,29.65
2022-08-11T11:57:59.101Z,31.10
2022-08-11T11:58:47.819Z,39.80
2022-08-11T11:59:46.820Z,27.71
2022-08-11T12:00:46.808Z,27.07
2022-08-11T12:01:50.393Z,29.81
2022-08-11T12:02:47.816Z,30.13
2022-08-11T12:03:46.796Z,27.23
2022-08-11T12:04:46.786Z,28.04
2022-08-11T12:05:46.778Z,30.94
2022-08-11T12:06:46.773Z,32.71
2022-08-11T12:07:46.792Z,31.90
2022-08-11T12:08:47.780Z,29.97
2022-08-11T12:09:46.765Z,36.74
2022-08-11T12:10:46.755Z,31.90
2022-08-11T12:11:46.753Z,29.97
2022-08-11T12:12:46.757Z,33.03
2022-08-11T12:13:46.744Z,31.90
2022-08-11T12:14:46.735Z,30.62
2022-08-11T12:16:32.017Z,32.87
2022-08-11T12:16:47.728Z,28.52
2022-08-11T12:17:51.047Z,29.97
2022-08-11T12:18:47.707Z,27.07
2022-08-11T12:19:48.586Z,29.00
2022-08-11T12:20:46.710Z,30.62
2022-08-11T12:21:50.946Z,31.90
2022-08-11T12:22:47.699Z,27.39
2022-08-11T12:23:46.697Z,34.00
2022-08-11T12:24:46.668Z,26.75
2022-08-11T12:25:46.675Z,27.55
2022-08-11T12:26:46.663Z,33.19
2022-08-11T12:27:47.675Z,29.17
2022-08-11T12:28:46.658Z,28.52
2022-08-11T12:29:50.055Z,30.13
2022-08-11T12:30:50.714Z,29.97
2022-08-11T12:31:47.644Z,27.39
2022-08-11T12:32:46.647Z,27.55
2022-08-11T12:33:46.645Z,28.20
2022-08-11T12:34:46.624Z,29.49
2022-08-11T12:36:01.236Z,29.33
2022-08-11T12:36:47.614Z,29.65
2022-08-11T12:37:46.702Z,28.68
2022-08-11T12:38:46.601Z,28.20
2022-08-11T12:40:16.599Z,29.49
2022-08-11T12:41:15.203Z,27.23
2022-08-11T12:41:47.723Z,26.91
2022-08-11T12:42:46.599Z,27.07
2022-08-11T12:43:57.050Z,35.77
2022-08-11T12:44:47.575Z,35.93
2022-08-11T12:45:46.565Z,27.07
2022-08-11T12:46:46.558Z,29.00
2022-08-11T12:48:58.936Z,32.87
2022-08-11T12:48:59.793Z,30.45
2022-08-11T12:49:47.545Z,29.33
2022-08-11T12:50:46.537Z,35.29
2022-08-11T12:52:01.510Z,32.87
2022-08-11T12:52:47.551Z,35.45
2022-08-11T12:53:46.522Z,31.42